createdAt,value
2019-03-21T00:00:41.894Z,39.07
2019-03-21T00:01:41.755Z,39.87
2019-03-21T00:02:42.461Z,39.29
2019-03-21T00:03:41.491Z,39.28
2019-03-21T00:04:42.203Z,40.17
2019-03-21T00:05:42.052Z,39.98
2019-03-21T00:06:42.666Z,39.28
2019-03-21T00:07:42.558Z,39.98
2019-03-21T00:08:43.084Z,39.18
2019-03-21T00:09:41.446Z,39.20
2019-03-21T00:10:41.660Z,39.07
2019-03-21T00:11:41.946Z,39.18
2019-03-21T00:12:45.633Z,39.28
2019-03-21T00:13:41.366Z,40.39
2019-03-21T00:14:41.479Z,39.18
2019-03-21T00:15:41.571Z,39.28
2019-03-21T00:16:44.164Z,39.18
2019-03-21T00:17:41.440Z,39.67
2019-03-21T00:18:43.658Z,39.58
2019-03-21T00:19:41.457Z,39.67
2019-03-21T00:20:41.308Z,40.17
2019-03-21T00:21:41.418Z,39.29
2019-03-21T00:22:41.445Z,39.18
2019-03-21T00:23:41.385Z,40.08
2019-03-21T00:24:47.447Z,39.98
2019-03-21T00:25:41.563Z,39.87
2019-03-21T00:26:42.028Z,39.79
2019-03-21T00:27:41.204Z,39.20
2019-03-21T00:28:41.461Z,39.78
2019-03-21T00:29:41.179Z,39.78
2019-03-21T00:30:42.454Z,39.67
2019-03-21T00:31:41.789Z,39.28
2019-03-21T00:32:41.819Z,39.37
2019-03-21T00:33:41.761Z,40.58
2019-03-21T00:34:41.323Z,39.28
2019-03-21T00:35:41.157Z,39.78
2019-03-21T00:36:41.541Z,39.78
2019-03-21T00:37:41.130Z,39.50
2019-03-21T00:38:41.358Z,40.08
2019-03-21T00:39:41.845Z,39.79
2019-03-21T00:40:43.840Z,39.78
2019-03-21T00:41:41.615Z,39.78
2019-03-21T00:42:43.775Z,39.59
2019-03-21T00:43:41.345Z,39.78
2019-03-21T00:44:41.109Z,39.28
2019-03-21T00:45:41.014Z,39.58
2019-03-21T00:46:41.210Z,39.89
2019-03-21T00:47:41.041Z,39.87
2019-03-21T00:48:42.842Z,39.18
2019-03-21T00:49:40.949Z,39.87
2019-03-21T00:50:41.244Z,39.58
2019-03-21T00:51:40.933Z,39.79
2019-03-21T00:52:41.102Z,40.50
2019-03-21T00:53:41.009Z,39.79
2019-03-21T00:54:41.836Z,40.47
2019-03-21T00:55:41.303Z,39.18
2019-03-21T00:56:40.887Z,39.37
2019-03-21T00:57:40.877Z,39.58
2019-03-21T00:58:41.325Z,39.48
2019-03-21T00:59:41.399Z,40.50
2019-03-21T01:00:42.115Z,39.79
2019-03-21T01:01:42.430Z,39.78
2019-03-21T01:02:41.265Z,40.30
2019-03-21T01:03:41.469Z,39.79
2019-03-21T01:04:40.837Z,39.79
2019-03-21T01:05:40.807Z,39.67
2019-03-21T01:06:42.224Z,40.00
2019-03-21T01:07:40.809Z,39.78
2019-03-21T01:08:40.766Z,39.78
2019-03-21T01:09:40.984Z,39.79
2019-03-21T01:10:40.904Z,39.69
2019-03-21T01:11:41.382Z,40.08
2019-03-21T01:12:42.206Z,39.79
2019-03-21T01:13:41.471Z,39.58
2019-03-21T01:14:42.064Z,39.78
2019-03-21T01:15:40.685Z,39.98
2019-03-21T01:16:40.655Z,39.78
2019-03-21T01:17:41.767Z,40.59
2019-03-21T01:18:44.127Z,40.09
2019-03-21T01:19:40.891Z,40.08
2019-03-21T01:20:42.532Z,40.08
2019-03-21T01:21:40.634Z,39.78
2019-03-21T01:22:40.794Z,39.78
2019-03-21T01:23:40.624Z,39.89
2019-03-21T01:24:45.182Z,39.98
2019-03-21T01:25:40.786Z,39.78
2019-03-21T01:26:40.556Z,39.79
2019-03-21T01:27:40.539Z,39.79
2019-03-21T01:28:41.549Z,39.78
2019-03-21T01:29:40.526Z,39.58
2019-03-21T01:30:40.694Z,39.98
2019-03-21T01:31:40.784Z,39.98
2019-03-21T01:32:40.697Z,39.69
2019-03-21T01:33:40.470Z,39.79
2019-03-21T01:34:40.530Z,40.08
2019-03-21T01:35:40.454Z,39.67
2019-03-21T01:36:40.687Z,39.79
2019-03-21T01:37:40.650Z,40.17
2019-03-21T01:38:41.096Z,39.78
2019-03-21T01:39:40.538Z,40.19
2019-03-21T01:40:40.391Z,39.79
2019-03-21T01:41:41.907Z,40.19
2019-03-21T01:42:40.629Z,39.78
2019-03-21T01:43:40.362Z,40.19
2019-03-21T01:44:41.506Z,39.79
2019-03-21T01:45:40.385Z,40.00
2019-03-21T01:46:40.578Z,39.79
2019-03-21T01:47:40.403Z,40.09
2019-03-21T01:48:43.121Z,40.19
2019-03-21T01:49:40.453Z,40.09
2019-03-21T01:50:40.312Z,40.17
2019-03-21T01:51:41.015Z,39.78
2019-03-21T01:52:40.252Z,39.59
2019-03-21T01:53:40.243Z,40.19
2019-03-21T01:54:40.374Z,39.79
2019-03-21T01:55:40.564Z,40.00
2019-03-21T01:56:40.239Z,39.59
2019-03-21T01:57:40.617Z,40.00
2019-03-21T01:58:40.960Z,40.28
2019-03-21T01:59:41.164Z,40.28
2019-03-21T02:00:44.097Z,40.09
2019-03-21T02:01:40.268Z,39.79
2019-03-21T02:02:40.273Z,39.67
2019-03-21T02:03:40.319Z,40.39
2019-03-21T02:04:40.652Z,40.19
2019-03-21T02:05:40.286Z,39.79
2019-03-21T02:06:40.216Z,40.00
2019-03-21T02:07:42.427Z,40.19
2019-03-21T02:08:40.321Z,39.89
2019-03-21T02:09:40.074Z,39.59
2019-03-21T02:10:40.094Z,40.09
2019-03-21T02:11:40.124Z,39.78
2019-03-21T02:12:40.353Z,40.30
2019-03-21T02:13:40.127Z,40.19
2019-03-21T02:14:51.863Z,40.09
2019-03-21T02:15:41.169Z,39.79
2019-03-21T02:16:41.684Z,40.30
2019-03-21T02:17:40.040Z,40.30
2019-03-21T02:18:43.710Z,40.30
2019-03-21T02:19:41.019Z,40.19
2019-03-21T02:20:41.164Z,40.30
2019-03-21T02:21:40.386Z,39.79
2019-03-21T02:22:41.676Z,40.09
2019-03-21T02:23:41.628Z,40.19
2019-03-21T02:24:40.168Z,40.30
2019-03-21T02:25:39.952Z,40.19
2019-03-21T02:26:39.897Z,40.09
2019-03-21T02:27:40.243Z,40.19
2019-03-21T02:28:39.860Z,40.19
2019-03-21T02:29:39.977Z,40.09
2019-03-21T02:30:40.163Z,40.09
2019-03-21T02:31:39.833Z,40.00
2019-03-21T02:32:39.996Z,40.39
2019-03-21T02:33:39.818Z,40.19
2019-03-21T02:34:39.794Z,40.19
2019-03-21T02:35:39.779Z,40.19
2019-03-21T02:36:40.916Z,40.39
2019-03-21T02:37:39.881Z,40.19
2019-03-21T02:39:40.739Z,40.19
2019-03-21T02:40:39.723Z,40.30
2019-03-21T02:41:39.742Z,40.30
2019-03-21T02:42:42.120Z,40.19
2019-03-21T02:43:39.684Z,40.00
2019-03-21T02:44:39.782Z,40.00
2019-03-21T02:45:39.703Z,40.09
2019-03-21T02:46:39.831Z,40.09
2019-03-21T02:47:39.884Z,40.19
2019-03-21T02:48:41.419Z,40.09
2019-03-21T02:49:39.620Z,40.19
2019-03-21T02:50:42.887Z,40.30
2019-03-21T02:51:39.761Z,40.00
2019-03-21T02:52:39.655Z,40.30
2019-03-21T02:53:41.541Z,40.00
2019-03-21T02:54:39.636Z,40.09
2019-03-21T02:55:39.568Z,40.19
2019-03-21T02:56:39.554Z,40.19
2019-03-21T02:57:39.572Z,40.00
2019-03-21T02:58:39.848Z,40.19
2019-03-21T02:59:39.624Z,40.19
2019-03-21T03:00:39.803Z,40.19
2019-03-21T03:01:39.877Z,40.19
2019-03-21T03:02:40.209Z,40.30
2019-03-21T03:03:39.471Z,40.09
2019-03-21T03:04:39.460Z,40.30
2019-03-21T03:05:39.687Z,40.09
2019-03-21T03:06:41.331Z,40.09
2019-03-21T03:07:41.026Z,40.00
2019-03-21T03:08:40.414Z,40.09
2019-03-21T03:09:39.569Z,40.19
2019-03-21T03:10:39.389Z,40.30
2019-03-21T03:11:40.005Z,40.09
2019-03-21T03:12:39.660Z,40.30
2019-03-21T03:13:43.927Z,40.09
2019-03-21T03:14:39.362Z,40.09
2019-03-21T03:15:39.409Z,40.39
2019-03-21T03:16:39.332Z,40.30
2019-03-21T03:17:40.830Z,40.30
2019-03-21T03:18:42.037Z,40.30
2019-03-21T03:19:39.300Z,40.19
2019-03-21T03:20:40.776Z,40.30
2019-03-21T03:21:39.280Z,40.30
2019-03-21T03:22:39.267Z,39.89
2019-03-21T03:23:39.242Z,40.19
2019-03-21T03:24:39.455Z,40.00
2019-03-21T03:25:39.379Z,40.39
2019-03-21T03:26:40.730Z,40.00
2019-03-21T03:27:39.529Z,40.19
2019-03-21T03:28:39.603Z,40.19
2019-03-21T03:29:39.592Z,40.19
2019-03-21T03:30:43.328Z,40.09
2019-03-21T03:31:40.884Z,40.09
2019-03-21T03:32:39.259Z,40.19
2019-03-21T03:33:39.554Z,40.00
2019-03-21T03:34:39.311Z,40.00
2019-03-21T03:35:39.134Z,40.50
2019-03-21T03:36:39.187Z,40.09
2019-03-21T03:37:39.446Z,40.50
2019-03-21T03:38:39.929Z,39.89
2019-03-21T03:39:39.737Z,40.00
2019-03-21T03:40:39.083Z,40.00
2019-03-21T03:41:39.823Z,40.09
2019-03-21T03:42:42.389Z,40.19
2019-03-21T03:43:39.424Z,40.09
2019-03-21T03:44:39.251Z,40.19
2019-03-21T03:45:40.315Z,40.09
2019-03-21T03:46:40.102Z,40.19
2019-03-21T03:47:39.532Z,40.30
2019-03-21T03:48:51.289Z,40.39
2019-03-21T03:49:39.175Z,40.39
2019-03-21T03:50:40.715Z,40.39
2019-03-21T03:51:39.083Z,40.30
2019-03-21T03:52:39.143Z,40.39
2019-03-21T03:53:42.451Z,40.09
2019-03-21T03:54:39.204Z,40.19
2019-03-21T03:55:38.899Z,40.00
2019-03-21T03:56:39.092Z,39.89
2019-03-21T03:57:38.964Z,40.30
2019-03-21T03:58:39.154Z,40.39
2019-03-21T03:59:38.849Z,39.89
2019-03-21T04:00:42.356Z,40.30
2019-03-21T04:01:39.045Z,40.00
2019-03-21T04:02:39.031Z,40.39
2019-03-21T04:03:39.842Z,40.30
2019-03-21T04:04:38.966Z,40.19
2019-03-21T04:05:38.968Z,40.30
2019-03-21T04:06:40.437Z,39.89
2019-03-21T04:07:38.970Z,40.09
2019-03-21T04:08:38.881Z,40.19
2019-03-21T04:09:39.139Z,40.00
2019-03-21T04:10:38.866Z,40.19
2019-03-21T04:11:38.758Z,40.19
2019-03-21T04:12:43.259Z,40.19
2019-03-21T04:13:39.693Z,40.39
2019-03-21T04:14:38.913Z,40.00
2019-03-21T04:15:51.644Z,40.09
2019-03-21T04:16:39.667Z,40.00
2019-03-21T04:17:39.378Z,40.39
2019-03-21T04:18:39.017Z,40.00
2019-03-21T04:19:38.628Z,40.59
2019-03-21T04:20:38.924Z,40.59
2019-03-21T04:21:38.631Z,40.31
2019-03-21T04:22:39.590Z,40.19
2019-03-21T04:23:40.530Z,40.39
2019-03-21T04:24:41.321Z,40.09
2019-03-21T04:25:38.803Z,40.59
2019-03-21T04:26:38.640Z,40.50
2019-03-21T04:27:41.820Z,40.39
2019-03-21T04:28:38.576Z,40.39
2019-03-21T04:29:41.134Z,40.30
2019-03-21T04:30:38.541Z,40.59
2019-03-21T04:31:38.769Z,40.61
2019-03-21T04:32:38.485Z,39.89
2019-03-21T04:33:40.306Z,40.30
2019-03-21T04:34:38.780Z,40.69
2019-03-21T04:35:38.795Z,40.09
2019-03-21T04:36:38.619Z,40.19
2019-03-21T04:37:38.500Z,40.19
2019-03-21T04:38:39.129Z,40.50
2019-03-21T04:39:41.179Z,40.69
2019-03-21T04:40:38.395Z,40.19
2019-03-21T04:41:41.959Z,40.19
2019-03-21T04:42:38.984Z,40.52
2019-03-21T04:43:38.359Z,40.30
2019-03-21T04:44:38.353Z,40.39
2019-03-21T04:45:39.348Z,40.09
2019-03-21T04:46:38.327Z,40.39
2019-03-21T04:47:38.562Z,40.50
2019-03-21T04:48:38.839Z,40.50
2019-03-21T04:49:38.349Z,40.30
2019-03-21T04:50:38.315Z,40.59
2019-03-21T04:51:38.576Z,40.39
2019-03-21T04:52:38.457Z,40.09
2019-03-21T04:53:41.740Z,39.89
2019-03-21T04:54:38.236Z,40.59
2019-03-21T04:55:38.344Z,40.30
2019-03-21T04:56:39.848Z,40.19
2019-03-21T04:57:38.923Z,40.19
2019-03-21T04:58:40.071Z,40.19
2019-03-21T04:59:42.437Z,40.19
2019-03-21T05:00:38.301Z,40.50
2019-03-21T05:01:38.468Z,40.09
2019-03-21T05:02:38.255Z,40.39
2019-03-21T05:03:38.543Z,40.19
2019-03-21T05:04:38.128Z,40.00
2019-03-21T05:05:39.604Z,40.39
2019-03-21T05:06:38.724Z,40.50
2019-03-21T05:07:38.097Z,40.30
2019-03-21T05:08:38.426Z,40.39
2019-03-21T05:09:38.120Z,40.39
2019-03-21T05:10:38.937Z,40.69
2019-03-21T05:11:38.238Z,40.39
2019-03-21T05:12:38.248Z,40.39
2019-03-21T05:13:38.282Z,40.19
2019-03-21T05:15:40.151Z,40.19
2019-03-21T05:16:38.231Z,40.19
2019-03-21T05:17:42.470Z,40.00
2019-03-21T05:18:37.970Z,40.39
2019-03-21T05:19:37.955Z,40.19
2019-03-21T05:20:37.949Z,40.59
2019-03-21T05:21:38.015Z,40.30
2019-03-21T05:22:38.184Z,40.00
2019-03-21T05:23:37.943Z,40.39
2019-03-21T05:24:38.327Z,40.19
2019-03-21T05:25:37.947Z,40.39
2019-03-21T05:26:37.930Z,40.09
2019-03-21T05:27:38.048Z,40.69
2019-03-21T05:28:37.856Z,40.39
2019-03-21T05:29:38.209Z,40.19
2019-03-21T05:30:38.845Z,40.39
2019-03-21T05:31:37.827Z,40.69
2019-03-21T05:32:37.826Z,40.30
2019-03-21T05:33:37.858Z,40.09
2019-03-21T05:34:38.120Z,40.39
2019-03-21T05:35:39.900Z,40.19
2019-03-21T05:36:37.788Z,40.30
2019-03-21T05:37:40.710Z,40.19
2019-03-21T05:38:37.761Z,40.69
2019-03-21T05:39:37.982Z,40.39
2019-03-21T05:40:37.731Z,40.80
2019-03-21T05:41:40.821Z,40.50
2019-03-21T05:42:38.932Z,40.30
2019-03-21T05:43:38.981Z,40.19
2019-03-21T05:44:37.727Z,40.19
2019-03-21T05:45:38.990Z,40.30
2019-03-21T05:46:39.537Z,40.69
2019-03-21T05:47:40.384Z,40.31
2019-03-21T05:48:37.656Z,40.19
2019-03-21T05:49:42.899Z,40.50
2019-03-21T05:50:38.908Z,40.19
2019-03-21T05:51:38.541Z,40.19
2019-03-21T05:52:38.213Z,40.30
2019-03-21T05:53:38.811Z,40.39
2019-03-21T05:54:37.604Z,40.89
2019-03-21T05:55:37.821Z,40.52
2019-03-21T05:56:39.549Z,40.19
2019-03-21T05:57:38.062Z,40.59
2019-03-21T05:58:40.125Z,40.50
2019-03-21T05:59:39.263Z,40.31
2019-03-21T06:00:38.606Z,40.39
2019-03-21T06:01:38.682Z,40.30
2019-03-21T06:02:37.631Z,40.19
2019-03-21T06:03:37.635Z,40.39
2019-03-21T06:04:37.465Z,40.69
2019-03-21T06:05:38.294Z,40.19
2019-03-21T06:06:40.589Z,40.39
2019-03-21T06:07:38.600Z,40.59
2019-03-21T06:08:37.800Z,40.50
2019-03-21T06:09:37.865Z,40.30
2019-03-21T06:10:37.667Z,40.39
2019-03-21T06:11:43.722Z,40.19
2019-03-21T06:12:37.530Z,40.19
2019-03-21T06:13:37.455Z,40.30
2019-03-21T06:14:40.085Z,40.50
2019-03-21T06:15:40.708Z,40.89
2019-03-21T06:16:41.691Z,40.39
2019-03-21T06:17:43.590Z,40.41
2019-03-21T06:18:37.327Z,40.09
2019-03-21T06:19:37.931Z,40.30
2019-03-21T06:20:42.106Z,40.50
2019-03-21T06:21:37.267Z,40.19
2019-03-21T06:22:37.302Z,40.69
2019-03-21T06:23:44.671Z,40.39
2019-03-21T06:24:39.025Z,40.50
2019-03-21T06:25:38.034Z,40.39
2019-03-21T06:26:38.036Z,40.50
2019-03-21T06:27:40.236Z,40.22
2019-03-21T06:28:41.270Z,40.50
2019-03-21T06:29:40.529Z,40.69
2019-03-21T06:30:42.209Z,40.39
2019-03-21T06:31:37.875Z,40.39
2019-03-21T06:32:37.159Z,40.39
2019-03-21T06:33:38.145Z,40.30
2019-03-21T06:34:48.756Z,40.30
2019-03-21T06:35:51.952Z,40.31
2019-03-21T06:36:38.325Z,40.09
2019-03-21T06:37:38.844Z,40.50
2019-03-21T06:38:37.542Z,40.50
2019-03-21T06:39:41.954Z,40.50
2019-03-21T06:40:37.746Z,40.39
2019-03-21T06:41:42.709Z,40.71
2019-03-21T06:42:40.117Z,40.39
2019-03-21T06:43:38.867Z,40.30
2019-03-21T06:44:42.322Z,40.61
2019-03-21T06:45:47.555Z,40.19
2019-03-21T06:46:48.900Z,40.50
2019-03-21T06:47:39.366Z,40.50
2019-03-21T06:48:39.897Z,40.19
2019-03-21T06:49:40.113Z,40.50
2019-03-21T06:50:42.107Z,40.50
2019-03-21T06:51:39.128Z,40.69
2019-03-21T06:52:36.926Z,40.69
2019-03-21T06:53:37.437Z,40.50
2019-03-21T06:54:38.584Z,40.50
2019-03-21T06:55:40.174Z,40.39
2019-03-21T06:56:44.151Z,40.30
2019-03-21T06:57:38.068Z,40.50
2019-03-21T06:58:40.832Z,40.39
2019-03-21T06:59:40.572Z,40.50
2019-03-21T07:00:38.356Z,40.30
2019-03-21T07:01:38.191Z,40.69
2019-03-21T07:02:37.954Z,40.19
2019-03-21T07:03:37.611Z,40.59
2019-03-21T07:04:38.162Z,40.19
2019-03-21T07:05:40.926Z,40.39
2019-03-21T07:06:39.178Z,40.50
2019-03-21T07:07:37.445Z,40.50
2019-03-21T07:08:39.371Z,40.80
2019-03-21T07:09:39.636Z,40.59
2019-03-21T07:10:39.898Z,40.69
2019-03-21T07:11:41.282Z,40.31
2019-03-21T07:12:38.207Z,40.39
2019-03-21T07:13:37.783Z,40.39
2019-03-21T07:14:36.703Z,40.89
2019-03-21T07:15:40.328Z,40.39
2019-03-21T07:16:40.115Z,40.69
2019-03-21T07:17:45.030Z,40.69
2019-03-21T07:18:36.924Z,40.89
2019-03-21T07:19:37.439Z,40.91
2019-03-21T07:20:41.244Z,40.50
2019-03-21T07:21:37.176Z,40.80
2019-03-21T07:22:38.718Z,40.59
2019-03-21T07:23:42.425Z,40.50
2019-03-21T07:24:36.806Z,40.89
2019-03-21T07:25:36.730Z,40.69
2019-03-21T07:26:37.625Z,40.59
2019-03-21T07:27:42.658Z,40.80
2019-03-21T07:28:38.815Z,40.50
2019-03-21T07:29:38.414Z,40.50
2019-03-21T07:30:36.500Z,40.39
2019-03-21T07:31:36.695Z,40.80
2019-03-21T07:32:36.577Z,40.80
2019-03-21T07:33:36.603Z,40.50
2019-03-21T07:34:36.729Z,40.19
2019-03-21T07:35:38.471Z,40.39
2019-03-21T07:36:38.555Z,40.39
2019-03-21T07:37:36.982Z,40.39
2019-03-21T07:38:37.443Z,40.50
2019-03-21T07:39:36.604Z,40.39
2019-03-21T07:40:36.395Z,40.19
2019-03-21T07:41:37.414Z,40.19
2019-03-21T07:42:36.771Z,40.19
2019-03-21T07:43:39.697Z,40.80
2019-03-21T07:44:37.972Z,40.50
2019-03-21T07:45:37.943Z,40.89
2019-03-21T07:46:37.143Z,40.59
2019-03-21T07:47:36.346Z,40.89
2019-03-21T07:48:37.460Z,40.50
2019-03-21T07:49:36.294Z,40.39
2019-03-21T07:50:36.283Z,40.89
2019-03-21T07:51:37.319Z,40.69
2019-03-21T07:52:36.274Z,40.39
2019-03-21T07:53:37.272Z,40.50
2019-03-21T07:54:38.271Z,40.50
2019-03-21T07:55:36.227Z,40.39
2019-03-21T07:56:36.550Z,40.39
2019-03-21T07:57:37.586Z,40.30
2019-03-21T07:58:36.190Z,40.50
2019-03-21T07:59:37.324Z,40.50
2019-03-21T08:00:36.173Z,40.19
2019-03-21T08:01:37.179Z,40.19
2019-03-21T08:02:36.175Z,40.30
2019-03-21T08:03:37.486Z,40.50
2019-03-21T08:04:36.124Z,40.30
2019-03-21T08:05:40.630Z,40.30
2019-03-21T08:06:36.097Z,40.39
2019-03-21T08:07:36.529Z,40.50
2019-03-21T08:08:36.084Z,40.89
2019-03-21T08:09:36.725Z,40.39
2019-03-21T08:10:36.525Z,40.50
2019-03-21T08:11:36.131Z,40.19
2019-03-21T08:12:39.677Z,40.39
2019-03-21T08:13:36.028Z,40.39
2019-03-21T08:14:36.019Z,40.69
2019-03-21T08:15:37.990Z,40.89
2019-03-21T08:16:36.543Z,40.50
2019-03-21T08:17:36.006Z,40.89
2019-03-21T08:18:38.787Z,40.39
2019-03-21T08:19:36.666Z,40.69
2019-03-21T08:20:38.033Z,40.39
2019-03-21T08:21:36.100Z,40.39
2019-03-21T08:22:36.707Z,40.89
2019-03-21T08:23:39.762Z,40.89
2019-03-21T08:24:37.649Z,40.80
2019-03-21T08:25:36.876Z,40.69
2019-03-21T08:26:35.878Z,40.19
2019-03-21T08:27:36.406Z,40.50
2019-03-21T08:28:39.114Z,40.80
2019-03-21T08:29:40.268Z,40.50
2019-03-21T08:30:36.349Z,40.39
2019-03-21T08:31:37.042Z,40.50
2019-03-21T08:32:35.960Z,40.99
2019-03-21T08:33:36.800Z,40.80
2019-03-21T08:34:38.724Z,40.50
2019-03-21T08:35:35.962Z,40.50
2019-03-21T08:36:37.619Z,40.39
2019-03-21T08:37:35.764Z,40.50
2019-03-21T08:38:35.844Z,40.39
2019-03-21T08:39:38.770Z,40.39
2019-03-21T08:40:42.546Z,40.30
2019-03-21T08:41:35.817Z,40.89
2019-03-21T08:42:36.704Z,40.69
2019-03-21T08:43:36.674Z,40.69
2019-03-21T08:44:36.162Z,40.50
2019-03-21T08:45:36.156Z,40.39
2019-03-21T08:46:37.458Z,40.59
2019-03-21T08:47:37.020Z,40.50
2019-03-21T08:48:36.610Z,40.30
2019-03-21T08:49:38.231Z,40.50
2019-03-21T08:50:35.808Z,40.19
2019-03-21T08:51:36.007Z,40.80
2019-03-21T08:52:36.905Z,40.50
2019-03-21T08:53:35.575Z,40.50
2019-03-21T08:54:35.724Z,40.30
2019-03-21T08:55:36.141Z,40.50
2019-03-21T08:56:35.589Z,40.39
2019-03-21T08:57:35.791Z,40.69
2019-03-21T08:58:35.773Z,40.30
2019-03-21T08:59:35.908Z,40.39
2019-03-21T09:00:35.507Z,40.30
2019-03-21T09:01:35.677Z,40.30
2019-03-21T09:02:35.475Z,40.50
2019-03-21T09:03:36.266Z,40.19
2019-03-21T09:04:36.294Z,40.19
2019-03-21T09:05:37.017Z,40.39
2019-03-21T09:06:35.441Z,40.39
2019-03-21T09:07:35.522Z,40.19
2019-03-21T09:08:35.410Z,40.19
2019-03-21T09:09:35.439Z,40.39
2019-03-21T09:10:35.625Z,40.30
2019-03-21T09:11:39.780Z,40.30
2019-03-21T09:12:35.810Z,40.39
2019-03-21T09:13:35.365Z,40.59
2019-03-21T09:14:35.639Z,40.19
2019-03-21T09:15:35.336Z,40.39
2019-03-21T09:16:35.366Z,40.39
2019-03-21T09:17:35.703Z,40.19
2019-03-21T09:18:35.302Z,40.19
2019-03-21T09:19:35.339Z,40.39
2019-03-21T09:20:37.732Z,40.19
2019-03-21T09:21:37.209Z,40.39
2019-03-21T09:22:35.253Z,40.30
2019-03-21T09:23:39.432Z,40.50
2019-03-21T09:24:36.111Z,40.50
2019-03-21T09:25:36.906Z,40.59
2019-03-21T09:26:35.848Z,40.30
2019-03-21T09:27:35.244Z,40.50
2019-03-21T09:28:36.995Z,40.30
2019-03-21T09:29:36.026Z,40.39
2019-03-21T09:30:35.245Z,40.39
2019-03-21T09:31:35.233Z,40.19
2019-03-21T09:32:35.364Z,40.39
2019-03-21T09:33:35.613Z,40.39
2019-03-21T09:34:35.126Z,40.39
2019-03-21T09:35:35.822Z,40.69
2019-03-21T09:36:35.108Z,40.50
2019-03-21T09:37:35.090Z,40.50
2019-03-21T09:38:36.466Z,40.39
2019-03-21T09:39:35.209Z,40.19
2019-03-21T09:40:35.063Z,40.19
2019-03-21T09:41:35.048Z,40.28
2019-03-21T09:42:35.409Z,40.39
2019-03-21T09:43:36.361Z,40.39
2019-03-21T09:44:35.645Z,40.19
2019-03-21T09:45:35.336Z,40.19
2019-03-21T09:46:35.000Z,40.19
2019-03-21T09:47:35.019Z,40.19
2019-03-21T09:48:36.606Z,40.30
2019-03-21T09:49:38.317Z,40.19
2019-03-21T09:50:34.947Z,40.30
2019-03-21T09:51:34.990Z,40.19
2019-03-21T09:52:34.926Z,40.28
2019-03-21T09:53:34.914Z,40.30
2019-03-21T09:54:37.079Z,40.17
2019-03-21T09:55:34.926Z,40.19
2019-03-21T09:56:34.883Z,40.19
2019-03-21T09:57:36.607Z,40.19
2019-03-21T09:58:35.844Z,40.37
2019-03-21T09:59:34.844Z,40.50
2019-03-21T10:00:39.122Z,40.17
2019-03-21T10:01:34.823Z,40.17
2019-03-21T10:02:34.821Z,40.17
2019-03-21T10:03:34.983Z,40.19
2019-03-21T10:04:34.798Z,40.39
2019-03-21T10:05:34.870Z,40.47
2019-03-21T10:06:34.774Z,40.19
2019-03-21T10:07:35.055Z,40.19
2019-03-21T10:08:34.748Z,40.37
2019-03-21T10:09:35.811Z,40.19
2019-03-21T10:10:34.723Z,40.28
2019-03-21T10:11:35.012Z,40.28
2019-03-21T10:12:36.111Z,40.58
2019-03-21T10:13:35.133Z,40.19
2019-03-21T10:14:34.681Z,40.47
2019-03-21T10:15:34.982Z,40.19
2019-03-21T10:16:34.657Z,40.19
2019-03-21T10:17:34.649Z,40.30
2019-03-21T10:18:34.639Z,40.30
2019-03-21T10:19:34.855Z,40.17
2019-03-21T10:20:34.619Z,40.17
2019-03-21T10:21:43.340Z,39.98
2019-03-21T10:22:35.595Z,40.37
2019-03-21T10:23:34.583Z,40.19
2019-03-21T10:24:34.566Z,40.28
2019-03-21T10:25:35.658Z,40.17
2019-03-21T10:26:34.569Z,40.28
2019-03-21T10:27:35.830Z,40.30
2019-03-21T10:28:34.527Z,39.87
2019-03-21T10:29:35.218Z,40.17
2019-03-21T10:30:34.580Z,39.98
2019-03-21T10:31:34.859Z,40.09
2019-03-21T10:32:34.484Z,40.17
2019-03-21T10:33:36.923Z,40.17
2019-03-21T10:34:34.459Z,40.28
2019-03-21T10:35:34.448Z,40.37
2019-03-21T10:36:34.435Z,40.17
2019-03-21T10:37:34.688Z,39.98
2019-03-21T10:38:34.495Z,39.98
2019-03-21T10:39:34.427Z,40.08
2019-03-21T10:40:36.023Z,40.47
2019-03-21T10:41:34.382Z,40.08
2019-03-21T10:42:35.611Z,40.08
2019-03-21T10:43:34.354Z,40.08
2019-03-21T10:44:34.387Z,40.08
2019-03-21T10:45:35.533Z,40.08
2019-03-21T10:46:34.521Z,40.28
2019-03-21T10:47:35.554Z,40.17
2019-03-21T10:48:37.508Z,40.28
2019-03-21T10:49:35.737Z,40.08
2019-03-21T10:50:34.289Z,40.08
2019-03-21T10:51:34.300Z,40.08
2019-03-21T10:52:34.269Z,40.08
2019-03-21T10:53:34.267Z,40.08
2019-03-21T10:54:34.236Z,40.08
2019-03-21T10:55:35.088Z,40.17
2019-03-21T10:56:34.218Z,40.08
2019-03-21T10:57:35.594Z,40.08
2019-03-21T10:58:35.793Z,39.98
2019-03-21T10:59:34.619Z,40.08
2019-03-21T11:00:34.184Z,40.17
2019-03-21T11:01:34.164Z,40.17
2019-03-21T11:02:34.148Z,40.28
2019-03-21T11:03:34.167Z,40.08
2019-03-21T11:04:34.136Z,40.28
2019-03-21T11:05:34.125Z,39.87
2019-03-21T11:06:34.374Z,40.28
2019-03-21T11:07:34.087Z,39.78
2019-03-21T11:08:34.396Z,40.17
2019-03-21T11:09:36.205Z,40.17
2019-03-21T11:10:34.058Z,40.37
2019-03-21T11:11:34.270Z,39.78
2019-03-21T11:12:35.494Z,40.17
2019-03-21T11:13:34.021Z,40.17
2019-03-21T11:14:34.479Z,39.78
2019-03-21T11:15:34.052Z,39.87
2019-03-21T11:16:36.017Z,40.17
2019-03-21T11:17:34.681Z,40.28
2019-03-21T11:18:36.325Z,40.37
2019-03-21T11:19:33.954Z,40.17
2019-03-21T11:20:34.654Z,39.87
2019-03-21T11:21:34.894Z,39.87
2019-03-21T11:22:35.341Z,39.67
2019-03-21T11:23:34.565Z,40.17
2019-03-21T11:24:33.899Z,39.78
2019-03-21T11:25:33.894Z,39.58
2019-03-21T11:26:33.887Z,40.08
2019-03-21T11:27:34.518Z,39.78
2019-03-21T11:28:33.867Z,39.58
2019-03-21T11:29:33.848Z,39.78
2019-03-21T11:30:33.833Z,39.78
2019-03-21T11:31:33.846Z,39.78
2019-03-21T11:32:33.919Z,39.78
2019-03-21T11:33:33.857Z,39.67
2019-03-21T11:34:33.889Z,39.78
2019-03-21T11:35:33.778Z,39.58
2019-03-21T11:37:35.030Z,39.58
2019-03-21T11:38:35.849Z,39.07
2019-03-21T11:39:38.124Z,39.78
2019-03-21T11:40:34.937Z,39.78
2019-03-21T11:41:35.322Z,39.78
2019-03-21T11:42:36.822Z,39.78
2019-03-21T11:43:34.714Z,39.78
2019-03-21T11:44:33.930Z,39.18
2019-03-21T11:45:37.008Z,40.17
2019-03-21T11:46:33.667Z,39.67
2019-03-21T11:47:41.806Z,39.28
2019-03-21T11:48:35.912Z,40.17
2019-03-21T11:49:35.504Z,39.67
2019-03-21T11:50:33.616Z,40.37
2019-03-21T11:51:33.630Z,39.18
2019-03-21T11:52:35.278Z,39.67
2019-03-21T11:53:33.581Z,40.37
2019-03-21T11:54:33.721Z,39.78
2019-03-21T11:55:33.559Z,39.28
2019-03-21T11:56:34.399Z,39.18
2019-03-21T11:57:33.871Z,40.47
2019-03-21T11:58:34.845Z,39.67
2019-03-21T11:59:46.479Z,39.18
2019-03-21T12:00:43.045Z,39.78
2019-03-21T12:01:36.970Z,39.78
2019-03-21T12:02:33.487Z,39.28
2019-03-21T12:03:33.862Z,39.18
2019-03-21T12:04:33.503Z,39.18
2019-03-21T12:05:33.500Z,39.18
2019-03-21T12:06:33.877Z,39.07
2019-03-21T12:07:33.424Z,40.36
2019-03-21T12:08:34.559Z,40.37
2019-03-21T12:09:33.439Z,39.58
2019-03-21T12:10:34.119Z,40.28
2019-03-21T12:11:33.384Z,39.07
2019-03-21T12:12:33.377Z,39.78
2019-03-21T12:13:34.050Z,39.67
2019-03-21T12:14:33.832Z,39.67
2019-03-21T12:15:33.372Z,39.15
2019-03-21T12:16:33.341Z,39.87
2019-03-21T12:17:34.580Z,39.78
2019-03-21T12:18:33.639Z,40.08
2019-03-21T12:19:33.453Z,39.67
2019-03-21T12:20:33.284Z,40.08
2019-03-21T12:21:33.351Z,40.28
2019-03-21T12:22:34.298Z,39.98
2019-03-21T12:23:33.254Z,39.15
2019-03-21T12:24:33.238Z,39.98
2019-03-21T12:25:33.696Z,39.58
2019-03-21T12:26:33.215Z,40.08
2019-03-21T12:27:33.229Z,39.86
2019-03-21T12:28:33.195Z,39.87
2019-03-21T12:29:34.695Z,39.87
2019-03-21T12:30:33.171Z,39.18
2019-03-21T12:31:33.214Z,39.18
2019-03-21T12:32:33.148Z,39.87
2019-03-21T12:33:33.403Z,39.87
2019-03-21T12:34:33.134Z,39.86
2019-03-21T12:35:33.194Z,39.95
2019-03-21T12:36:35.073Z,39.28
2019-03-21T12:37:33.093Z,39.58
2019-03-21T12:38:35.448Z,39.37
2019-03-21T12:39:33.360Z,39.67
2019-03-21T12:40:33.091Z,39.07
2019-03-21T12:41:36.318Z,39.37
2019-03-21T12:42:37.165Z,40.08
2019-03-21T12:43:34.031Z,39.76
2019-03-21T12:44:34.552Z,39.28
2019-03-21T12:45:33.463Z,40.28
2019-03-21T12:46:33.004Z,39.76
2019-03-21T12:47:32.980Z,39.18
2019-03-21T12:48:33.010Z,39.76
2019-03-21T12:49:33.345Z,39.67
2019-03-21T12:50:34.139Z,39.76
2019-03-21T12:51:32.942Z,40.17
2019-03-21T12:52:41.324Z,40.08
2019-03-21T12:53:34.807Z,39.36
2019-03-21T12:54:33.468Z,39.76
2019-03-21T12:55:33.411Z,39.76